Time;durP1;ratioP1;P1;durP2;ratioP2;P2;SDS_P1;SDS_P2;PMS_P1;PMS_P2;Temp;Humidity;BMP_temperature;BMP_pressure;BME280_temperature;BME280_humidity;BME280_pressure;Samples;Min_cycle;Max_cycle;Signal;HPM_P1;HPM_P2
2021/10/28 00:13:41;;;;;;;15.70;11.50;;;;;;;;;;5072683;28;20403;-70
2021/10/28 00:16:14;;;;;;;12.43;10.80;;;;;;;;;;5072947;28;20805;-70
2021/10/28 00:18:43;;;;;;;17.13;11.17;;;;;;;;;;5073273;28;20432;-70
2021/10/28 00:21:10;;;;;;;15.17;12.03;;;;;;;;;;5076426;28;20868;-71
2021/10/28 00:23:44;;;;;;;14.90;11.50;;;;;;;;;;5076317;28;20476;-71
2021/10/28 00:26:12;;;;;;;16.90;10.80;;;;;;;;;;5076522;28;20877;-70
2021/10/28 00:28:39;;;;;;;13.20;10.57;;;;;;;;;;5075936;28;20436;-71
2021/10/28 00:31:07;;;;;;;12.77;10.43;;;;;;;;;;5076171;28;20487;-70
2021/10/28 00:33:34;;;;;;;17.30;11.50;;;;;;;;;;5076233;28;20778;-70
2021/10/28 00:36:02;;;;;;;16.00;10.50;;;;;;;;;;5076154;28;20439;-71
2021/10/28 00:38:32;;;;;;;16.73;10.43;;;;;;;;;;5076007;28;20455;-71
2021/10/28 00:41:01;;;;;;;12.10;10.53;;;;;;;;;;5076293;28;20440;-71
2021/10/28 00:43:29;;;;;;;10.67;9.53;;;;;;;;;;5076408;28;20538;-71
2021/10/28 00:45:57;;;;;;;13.33;10.90;;;;;;;;;;5075653;28;20448;-70
2021/10/28 00:48:24;;;;;;;16.70;11.07;;;;;;;;;;5075926;28;20463;-71
2021/10/28 00:50:53;;;;;;;15.33;10.47;;;;;;;;;;5075898;28;20449;-71
2021/10/28 00:53:22;;;;;;;13.27;11.20;;;;;;;;;;5075849;28;20892;-71
2021/10/28 00:55:51;;;;;;;14.23;10.67;;;;;;;;;;5076121;28;21072;-71
2021/10/28 00:58:22;;;;;;;12.43;10.50;;;;;;;;;;5075347;28;20934;-71
2021/10/28 01:00:50;;;;;;;15.67;10.80;;;;;;;;;;5075373;28;20432;-71
2021/10/28 01:03:17;;;;;;;13.87;11.07;;;;;;;;;;5076067;28;20472;-70
2021/10/28 01:05:44;;;;;;;15.00;10.37;;;;;;;;;;5074792;28;20964;-71
2021/10/28 01:08:15;;;;;;;18.07;10.70;;;;;;;;;;5075093;28;20440;-71
2021/10/28 01:10:43;;;;;;;12.03;10.73;;;;;;;;;;5075180;28;20436;-71
2021/10/28 01:13:10;;;;;;;14.67;11.70;;;;;;;;;;5074956;28;20456;-72
2021/10/28 01:15:38;;;;;;;12.73;9.53;;;;;;;;;;5074675;28;20460;-71
2021/10/28 01:18:08;;;;;;;13.23;9.97;;;;;;;;;;5075018;28;20437;-70
2021/10/28 01:20:37;;;;;;;15.27;10.00;;;;;;;;;;5074960;28;20450;-71
2021/10/28 01:23:04;;;;;;;15.53;9.93;;;;;;;;;;5075210;28;20203;-71
2021/10/28 01:25:31;;;;;;;14.77;10.37;;;;;;;;;;5074771;28;20849;-71
2021/10/28 01:27:58;;;;;;;19.07;11.60;;;;;;;;;;5074821;28;20442;-71
2021/10/28 01:30:26;;;;;;;18.27;11.33;;;;;;;;;;5074507;28;20444;-71
2021/10/28 01:32:53;;;;;;;13.87;11.97;;;;;;;;;;5074989;28;20446;-71
2021/10/28 01:35:21;;;;;;;12.47;10.80;;;;;;;;;;5074229;28;20466;-71
2021/10/28 01:37:50;;;;;;;15.63;10.07;;;;;;;;;;5074121;28;20476;-71
2021/10/28 01:40:18;;;;;;;15.60;10.47;;;;;;;;;;5074039;28;20447;-71
2021/10/28 01:42:49;;;;;;;15.40;11.23;;;;;;;;;;5074513;28;20850;-71
2021/10/28 01:45:16;;;;;;;17.00;10.60;;;;;;;;;;5074411;28;20521;-71
2021/10/28 01:47:43;;;;;;;17.87;10.80;;;;;;;;;;5074055;28;20799;-71
2021/10/28 01:50:11;;;;;;;14.80;10.43;;;;;;;;;;5074546;28;20444;-71
2021/10/28 01:52:40;;;;;;;16.77;10.20;;;;;;;;;;5074460;28;20462;-71
2021/10/28 01:55:10;;;;;;;13.27;10.17;;;;;;;;;;5073838;28;20476;-71
2021/10/28 01:57:38;;;;;;;18.00;10.10;;;;;;;;;;5073770;28;20909;-71
2021/10/28 02:00:05;;;;;;;13.30;11.10;;;;;;;;;;5074074;28;20436;-71
2021/10/28 02:02:32;;;;;;;15.23;10.40;;;;;;;;;;5073877;28;20531;-70
2021/10/28 02:04:59;;;;;;;15.97;10.40;;;;;;;;;;5073765;28;20312;-71
2021/10/28 02:07:27;;;;;;;13.67;10.30;;;;;;;;;;5073470;28;20452;-70
2021/10/28 02:09:54;;;;;;;18.55;10.82;;;;;;;;;;5073761;28;20442;-71
2021/10/28 02:12:24;;;;;;;17.60;10.93;;;;;;;;;;5074165;28;20536;-71
2021/10/28 02:14:51;;;;;;;15.33;10.93;;;;;;;;;;5074206;28;20467;-69
2021/10/28 02:17:19;;;;;;;15.33;11.40;;;;;;;;;;5073344;28;21013;-70
2021/10/28 02:19:46;;;;;;;17.97;10.87;;;;;;;;;;5073889;28;20791;-70
2021/10/28 02:22:13;;;;;;;15.75;12.25;;;;;;;;;;5073899;28;20918;-70
2021/10/28 02:24:41;;;;;;;15.93;11.30;;;;;;;;;;5074006;28;20226;-70
2021/10/28 02:27:08;;;;;;;15.93;11.43;;;;;;;;;;5073481;28;20439;-71
2021/10/28 02:29:37;;;;;;;12.90;10.82;;;;;;;;;;5073600;28;20467;-71
2021/10/28 02:32:05;;;;;;;14.93;11.65;;;;;;;;;;5073206;28;20674;-70
2021/10/28 02:34:32;;;;;;;15.37;11.30;;;;;;;;;;5073436;28;20292;-70
2021/10/28 02:36:59;;;;;;;13.47;11.33;;;;;;;;;;5073157;28;21007;-70
2021/10/28 02:39:26;;;;;;;17.27;11.73;;;;;;;;;;5073099;28;20454;-70
2021/10/28 02:41:54;;;;;;;17.07;11.30;;;;;;;;;;5072683;28;20530;-70
2021/10/28 02:44:21;;;;;;;16.38;12.23;;;;;;;;;;5073318;28;20998;-71
2021/10/28 02:46:49;;;;;;;18.67;12.40;;;;;;;;;;5073259;28;20194;-71
2021/10/28 02:49:17;;;;;;;18.02;13.13;;;;;;;;;;5073500;28;20980;-71
2021/10/28 02:51:46;;;;;;;16.77;12.60;;;;;;;;;;5073283;28;20212;-71
2021/10/28 02:54:13;;;;;;;21.83;11.98;;;;;;;;;;5072707;28;20229;-71
2021/10/28 02:56:41;;;;;;;15.43;11.30;;;;;;;;;;5073722;28;20185;-70
2021/10/28 02:59:08;;;;;;;16.48;12.80;;;;;;;;;;5073764;28;20455;-71
2021/10/28 03:01:35;;;;;;;17.80;12.23;;;;;;;;;;5072848;28;20200;-71
2021/10/28 03:04:03;;;;;;;15.53;11.00;;;;;;;;;;5073462;28;20471;-71
2021/10/28 03:06:32;;;;;;;16.60;11.70;;;;;;;;;;5073209;28;20452;-70
2021/10/28 03:09:00;;;;;;;14.82;12.07;;;;;;;;;;5073592;28;20190;-71
2021/10/28 03:11:27;;;;;;;13.30;11.20;;;;;;;;;;5073448;28;20280;-71
2021/10/28 03:13:54;;;;;;;21.58;12.90;;;;;;;;;;5073371;28;20871;-71
2021/10/28 03:16:28;;;;;;;16.33;12.05;;;;;;;;;;5073309;28;20244;-70
2021/10/28 03:19:21;;;;;;;17.20;11.27;;;;;;;;;;5073672;28;20181;-71
2021/10/28 03:27:20;;;;;;;16.63;13.23;;;;;;;;;;5073178;28;20184;-71
2021/10/28 03:29:47;;;;;;;16.80;13.47;;;;;;;;;;5072977;28;20194;-70
2021/10/28 03:32:14;;;;;;;22.00;15.10;;;;;;;;;;5073333;28;20547;-70
2021/10/28 03:34:43;;;;;;;21.87;13.60;;;;;;;;;;5073244;28;20227;-71
2021/10/28 03:37:15;;;;;;;15.00;12.47;;;;;;;;;;5072853;28;20921;-71
2021/10/28 03:40:02;;;;;;;19.20;14.43;;;;;;;;;;5072956;28;20428;-71
2021/10/28 03:45:33;;;;;;;19.80;13.70;;;;;;;;;;5072903;28;20250;-71
2021/10/28 03:59:43;;;;;;;24.37;13.67;;;;;;;;;;5091761;28;20656;-71
2021/10/28 04:08:21;;;;;;;21.67;13.90;;;;;;;;;;5086864;28;20200;-71
2021/10/28 04:22:03;;;;;;;26.52;14.95;;;;;;;;;;5090543;28;20246;-70
2021/10/28 04:30:01;;;;;;;22.77;14.30;;;;;;;;;;5090366;28;20181;-70
2021/10/28 04:32:29;;;;;;;25.50;15.32;;;;;;;;;;5090328;28;20227;-70
2021/10/28 04:34:56;;;;;;;25.83;16.20;;;;;;;;;;5089581;28;20283;-71
2021/10/28 04:37:23;;;;;;;19.98;14.55;;;;;;;;;;5089928;28;20196;-70
2021/10/28 04:39:51;;;;;;;21.55;15.60;;;;;;;;;;5090164;28;20201;-70
2021/10/28 04:42:19;;;;;;;20.33;15.27;;;;;;;;;;5089832;28;20207;-70
2021/10/28 04:44:46;;;;;;;18.90;14.05;;;;;;;;;;5090114;28;20287;-70
2021/10/28 04:47:14;;;;;;;20.20;14.18;;;;;;;;;;5090353;28;20742;-71
2021/10/28 04:49:41;;;;;;;23.20;15.40;;;;;;;;;;5089939;28;20293;-70
2021/10/28 04:52:08;;;;;;;25.85;16.92;;;;;;;;;;5089477;28;20225;-71
2021/10/28 04:54:35;;;;;;;28.13;16.77;;;;;;;;;;5090002;28;20298;-71
2021/10/28 04:57:03;;;;;;;27.27;15.23;;;;;;;;;;5089754;28;20436;-70
2021/10/28 04:59:32;;;;;;;22.48;14.38;;;;;;;;;;5089620;28;20449;-70
2021/10/28 05:01:59;;;;;;;37.13;23.27;;;;;;;;;;5089857;28;20201;-70
2021/10/28 05:04:26;;;;;;;28.00;17.35;;;;;;;;;;5078867;28;20293;-71
2021/10/28 05:06:54;;;;;;;19.83;15.90;;;;;;;;;;5076380;28;20288;-71
2021/10/28 05:09:25;;;;;;;19.57;15.13;;;;;;;;;;5076403;28;20515;-70
2021/10/28 05:11:53;;;;;;;30.33;18.47;;;;;;;;;;5076680;28;20546;-71
2021/10/28 05:14:20;;;;;;;23.20;16.58;;;;;;;;;;5075618;28;20453;-70
2021/10/28 05:16:51;;;;;;;24.60;16.38;;;;;;;;;;5075288;28;20240;-70
2021/10/28 05:19:19;;;;;;;27.48;17.80;;;;;;;;;;5075652;28;20243;-70
2021/10/28 05:21:46;;;;;;;28.33;17.25;;;;;;;;;;5075578;28;20197;-67
2021/10/28 05:24:13;;;;;;;28.02;16.70;;;;;;;;;;5075980;28;20196;-75
2021/10/28 05:26:40;;;;;;;31.55;16.73;;;;;;;;;;5075629;28;20200;-74
2021/10/28 05:29:13;;;;;;;26.70;16.60;;;;;;;;;;5075930;28;20226;-74
2021/10/28 05:31:40;;;;;;;25.42;15.90;;;;;;;;;;5075461;28;20280;-74
2021/10/28 05:34:08;;;;;;;25.20;17.40;;;;;;;;;;5075851;28;20194;-74
2021/10/28 05:36:36;;;;;;;40.60;18.48;;;;;;;;;;5075309;28;20284;-74
2021/10/28 05:39:03;;;;;;;31.45;16.70;;;;;;;;;;5075899;28;20284;-74
2021/10/28 05:41:30;;;;;;;32.60;17.48;;;;;;;;;;5075368;28;20299;-74
2021/10/28 05:43:57;;;;;;;30.48;17.45;;;;;;;;;;5075692;28;20814;-74
2021/10/28 05:46:25;;;;;;;30.20;18.13;;;;;;;;;;5075306;28;20291;-74
2021/10/28 05:48:52;;;;;;;33.45;19.63;;;;;;;;;;5075737;28;20551;-74
2021/10/28 05:51:21;;;;;;;29.73;18.38;;;;;;;;;;5074975;28;20258;-73
2021/10/28 05:53:49;;;;;;;29.50;17.15;;;;;;;;;;5075101;28;20221;-74
2021/10/28 05:56:16;;;;;;;25.40;17.35;;;;;;;;;;5075370;28;20194;-74
2021/10/28 05:58:47;;;;;;;28.15;17.80;;;;;;;;;;5075295;28;20291;-74
2021/10/28 06:01:15;;;;;;;27.00;16.57;;;;;;;;;;5075550;28;20545;-74
2021/10/28 06:03:42;;;;;;;25.50;17.58;;;;;;;;;;5075197;28;20778;-74
2021/10/28 06:06:09;;;;;;;24.27;16.57;;;;;;;;;;5075203;28;20236;-74
2021/10/28 06:08:42;;;;;;;29.23;19.13;;;;;;;;;;5074820;28;20501;-74
2021/10/28 06:11:12;;;;;;;26.88;17.60;;;;;;;;;;5075303;28;20267;-74
2021/10/28 06:13:44;;;;;;;28.23;17.33;;;;;;;;;;5075017;28;20636;-74
2021/10/28 06:16:13;;;;;;;31.13;19.13;;;;;;;;;;5074210;28;20190;-74
2021/10/28 06:18:43;;;;;;;27.33;17.15;;;;;;;;;;5074947;28;20401;-74
2021/10/28 06:21:11;;;;;;;27.45;19.23;;;;;;;;;;5075300;28;20200;-74
2021/10/28 06:23:38;;;;;;;25.42;17.85;;;;;;;;;;5074875;28;20196;-74
2021/10/28 06:26:07;;;;;;;36.10;18.05;;;;;;;;;;5074468;28;20228;-73
2021/10/28 06:28:34;;;;;;;29.20;18.23;;;;;;;;;;5074737;28;20303;-73
2021/10/28 06:31:02;;;;;;;28.73;18.92;;;;;;;;;;5074761;28;20307;-74
2021/10/28 06:33:33;;;;;;;36.92;19.77;;;;;;;;;;5074587;28;20220;-73
2021/10/28 06:36:03;;;;;;;29.98;18.20;;;;;;;;;;5074304;28;20189;-75
2021/10/28 06:38:32;;;;;;;31.83;17.80;;;;;;;;;;5074174;28;20194;-73
2021/10/28 06:41:01;;;;;;;28.33;18.63;;;;;;;;;;5074429;28;20289;-74
2021/10/28 06:43:31;;;;;;;26.55;17.63;;;;;;;;;;5074530;28;20200;-74
2021/10/28 06:45:59;;;;;;;32.13;18.80;;;;;;;;;;5074378;28;20197;-74
2021/10/28 06:48:26;;;;;;;24.98;18.88;;;;;;;;;;5074370;28;20228;-75
2021/10/28 06:50:55;;;;;;;32.28;17.90;;;;;;;;;;5074507;28;20197;-73
2021/10/28 06:53:24;;;;;;;28.20;16.55;;;;;;;;;;5073692;28;20328;-74
2021/10/28 06:56:01;;;;;;;26.80;17.75;;;;;;;;;;5074192;28;20243;-74
2021/10/28 07:04:00;;;;;;;37.10;18.27;;;;;;;;;;5073914;28;20178;-74
2021/10/28 07:06:28;;;;;;;23.70;17.13;;;;;;;;;;5073645;28;20207;-73
2021/10/28 07:08:58;;;;;;;24.50;16.90;;;;;;;;;;5073997;28;20523;-74
2021/10/28 07:11:29;;;;;;;25.98;17.40;;;;;;;;;;5073572;28;20443;-74
2021/10/28 07:13:59;;;;;;;21.30;15.77;;;;;;;;;;5073921;28;20214;-74
2021/10/28 07:16:34;;;;;;;22.00;15.47;;;;;;;;;;5073877;28;20429;-75
2021/10/28 07:19:12;;;;;;;26.40;16.87;;;;;;;;;;5073821;28;20870;-75
2021/10/28 07:30:12;;;;;;;28.25;17.90;;;;;;;;;;5073619;28;20755;-74
2021/10/28 07:35:36;;;;;;;29.40;20.73;;;;;;;;;;5074427;28;20179;-74
2021/10/28 08:17:03;;;;;;;24.07;16.30;;;;;;;;;;5073493;28;20409;-73
2021/10/28 08:19:40;;;;;;;21.30;15.07;;;;;;;;;;5073429;28;20502;-73
2021/10/28 08:22:11;;;;;;;21.67;15.80;;;;;;;;;;5073333;28;20447;-73
2021/10/28 08:30:10;;;;;;;21.33;14.97;;;;;;;;;;5072978;28;20453;-75
2021/10/28 08:32:38;;;;;;;18.47;15.00;;;;;;;;;;5072666;28;20481;-74
2021/10/28 08:35:08;;;;;;;22.00;14.90;;;;;;;;;;5073108;28;20448;-74
2021/10/28 08:37:40;;;;;;;24.83;15.97;;;;;;;;;;5073832;28;20440;-74
2021/10/28 08:40:10;;;;;;;21.60;14.57;;;;;;;;;;5075975;28;20474;-74
2021/10/28 08:42:38;;;;;;;24.07;16.03;;;;;;;;;;5076417;28;20476;-74
2021/10/28 08:45:06;;;;;;;24.13;13.70;;;;;;;;;;5076708;28;20906;-75
2021/10/28 08:47:33;;;;;;;23.23;15.90;;;;;;;;;;5076897;28;20877;-74
2021/10/28 08:50:04;;;;;;;19.50;14.27;;;;;;;;;;5076687;28;20480;-73
2021/10/28 08:52:50;;;;;;;19.57;13.57;;;;;;;;;;5076455;28;20476;-74
2021/10/28 08:55:22;;;;;;;19.77;12.70;;;;;;;;;;5077124;28;20481;-74
2021/10/28 09:26:13;;;;;;;18.73;12.73;;;;;;;;;;5075838;28;20756;-74
2021/10/28 09:28:43;;;;;;;17.07;11.30;;;;;;;;;;5076298;28;20425;-74
2021/10/28 09:31:13;;;;;;;17.33;10.57;;;;;;;;;;5076287;28;20433;-74
2021/10/28 09:33:51;;;;;;;14.87;10.77;;;;;;;;;;5075495;28;20480;-73
2021/10/28 09:44:45;;;;;;;10.50;9.40;;;;;;;;;;5075568;28;20406;-74
2021/10/28 09:47:42;;;;;;;14.43;11.40;;;;;;;;;;5075954;28;20434;-74
2021/10/28 09:50:16;;;;;;;15.30;10.77;;;;;;;;;;5075144;28;20480;-73
2021/10/28 09:52:54;;;;;;;24.07;16.43;;;;;;;;;;5075517;28;20492;-73
2021/10/28 09:58:26;;;;;;;19.87;11.07;;;;;;;;;;5075157;28;20509;-74
2021/10/28 10:00:54;;;;;;;14.00;9.50;;;;;;;;;;5074943;28;20500;-74
2021/10/28 10:03:24;;;;;;;14.80;10.13;;;;;;;;;;5075210;28;20469;-74
2021/10/28 10:05:56;;;;;;;9.97;7.83;;;;;;;;;;5074869;28;20940;-74
2021/10/28 10:08:24;;;;;;;17.90;7.80;;;;;;;;;;5075655;28;20426;-74
2021/10/28 10:10:51;;;;;;;9.30;8.17;;;;;;;;;;5075267;28;20448;-73
2021/10/28 10:13:22;;;;;;;34.97;8.53;;;;;;;;;;5074617;28;20508;-73
2021/10/28 10:15:51;;;;;;;12.37;7.60;;;;;;;;;;5074676;28;20448;-73
2021/10/28 10:18:19;;;;;;;8.70;7.80;;;;;;;;;;5074658;28;20996;-74
2021/10/28 10:20:49;;;;;;;8.53;7.00;;;;;;;;;;5075190;28;20532;-73
2021/10/28 10:26:36;;;;;;;11.07;7.57;;;;;;;;;;5074719;28;20408;-73
2021/10/28 11:16:05;;;;;;;6.57;5.70;;;;;;;;;;5073649;28;20398;-73
2021/10/28 11:27:47;;;;;;;7.50;6.13;;;;;;;;;;5073425;28;20426;-74
2021/10/28 12:49:54;;;;;;;5.00;4.20;;;;;;;;;;5076286;28;20414;-70
2021/10/28 12:52:53;;;;;;;4.40;3.60;;;;;;;;;;5076499;28;20484;-71
2021/10/28 13:06:31;;;;;;;5.17;4.47;;;;;;;;;;5075855;28;20408;-70
2021/10/28 13:34:55;;;;;;;4.03;3.33;;;;;;;;;;5075628;28;20401;-70
2021/10/28 13:51:07;;;;;;;6.87;3.20;;;;;;;;;;5013260;28;20397;-70
2021/10/28 14:27:15;;;;;;;3.20;2.53;;;;;;;;;;5073896;28;20410;-71
2021/10/28 15:28:13;;;;;;;6.10;3.90;;;;;;;;;;5073346;28;20473;-70
2021/10/28 15:31:18;;;;;;;5.33;3.87;;;;;;;;;;5073547;28;20486;-70
2021/10/28 15:36:37;;;;;;;7.10;4.57;;;;;;;;;;5073357;28;20457;-70
2021/10/28 15:39:11;;;;;;;4.90;4.27;;;;;;;;;;5073329;28;20428;-70
2021/10/28 15:47:38;;;;;;;5.20;4.60;;;;;;;;;;5073139;28;20423;-70
2021/10/28 16:01:40;;;;;;;6.17;5.07;;;;;;;;;;5073773;28;20411;-70
2021/10/28 16:23:43;;;;;;;5.30;4.43;;;;;;;;;;5072974;28;20406;-70
2021/10/28 16:26:11;;;;;;;7.57;5.27;;;;;;;;;;5073154;28;20544;-71
2021/10/28 16:28:39;;;;;;;7.30;5.23;;;;;;;;;;5073642;28;20498;-70
2021/10/28 16:31:06;;;;;;;5.47;4.97;;;;;;;;;;5073245;28;20538;-71
2021/10/28 16:33:33;;;;;;;5.27;4.60;;;;;;;;;;5073445;28;20439;-71
2021/10/28 16:36:00;;;;;;;6.97;5.13;;;;;;;;;;5072805;28;20938;-70
2021/10/28 16:38:28;;;;;;;7.60;4.70;;;;;;;;;;5072850;28;20468;-70
2021/10/28 16:40:55;;;;;;;7.93;6.13;;;;;;;;;;5072600;28;20487;-70
2021/10/28 16:43:23;;;;;;;7.13;5.60;;;;;;;;;;5072531;28;20485;-70
2021/10/28 16:45:51;;;;;;;6.30;5.00;;;;;;;;;;5072603;28;20441;-70
2021/10/28 16:48:18;;;;;;;7.77;5.67;;;;;;;;;;5072925;28;20529;-70
2021/10/28 16:50:45;;;;;;;7.43;5.30;;;;;;;;;;5072949;28;20872;-71
2021/10/28 16:53:13;;;;;;;4.87;4.37;;;;;;;;;;5072420;28;20483;-70
2021/10/28 16:55:40;;;;;;;13.70;6.90;;;;;;;;;;5072401;28;20470;-70
2021/10/28 16:58:09;;;;;;;11.93;5.80;;;;;;;;;;5072467;28;20479;-70
2021/10/28 17:00:38;;;;;;;5.10;4.57;;;;;;;;;;5075069;28;20437;-71
2021/10/28 17:03:05;;;;;;;8.20;6.20;;;;;;;;;;5076359;28;20541;-70
2021/10/28 17:05:32;;;;;;;7.23;5.13;;;;;;;;;;5075928;28;20488;-70
2021/10/28 17:08:00;;;;;;;6.60;5.90;;;;;;;;;;5076154;28;20437;-69
2021/10/28 17:10:27;;;;;;;5.67;5.17;;;;;;;;;;5076092;28;20446;-70
2021/10/28 17:12:57;;;;;;;11.30;5.90;;;;;;;;;;5075778;28;20540;-69
2021/10/28 17:15:25;;;;;;;5.80;5.30;;;;;;;;;;5076079;28;20476;-70
2021/10/28 17:17:53;;;;;;;10.00;6.83;;;;;;;;;;5075700;28;20454;-70
2021/10/28 17:20:20;;;;;;;8.97;6.57;;;;;;;;;;5075977;28;20444;-70
2021/10/28 17:22:48;;;;;;;9.77;6.73;;;;;;;;;;5075535;28;20544;-69
2021/10/28 17:25:19;;;;;;;8.50;7.50;;;;;;;;;;5075953;28;20933;-71
2021/10/28 17:27:47;;;;;;;9.93;6.80;;;;;;;;;;5076156;28;20487;-70
2021/10/28 17:30:15;;;;;;;12.37;10.00;;;;;;;;;;5075458;28;20528;-70
2021/10/28 17:32:44;;;;;;;7.63;6.93;;;;;;;;;;5075470;28;20446;-70
2021/10/28 17:35:13;;;;;;;11.30;6.87;;;;;;;;;;5074903;28;20836;-71
2021/10/28 17:37:41;;;;;;;19.57;6.87;;;;;;;;;;5075789;28;20442;-71
2021/10/28 17:40:08;;;;;;;8.80;6.07;;;;;;;;;;5075779;28;20473;-70
2021/10/28 17:42:36;;;;;;;9.30;7.07;;;;;;;;;;5075798;28;20451;-70
2021/10/28 17:45:04;;;;;;;8.43;7.50;;;;;;;;;;5075591;28;20503;-70
2021/10/28 17:47:32;;;;;;;8.07;7.30;;;;;;;;;;5075628;28;20809;-70
2021/10/28 17:49:59;;;;;;;12.33;8.10;;;;;;;;;;5075137;28;20446;-71
2021/10/28 17:52:28;;;;;;;7.87;7.07;;;;;;;;;;5075385;28;20479;-70
2021/10/28 17:54:55;;;;;;;7.47;6.73;;;;;;;;;;5074927;28;20988;-70
2021/10/28 17:57:22;;;;;;;11.30;7.43;;;;;;;;;;5075941;28;20438;-70
2021/10/28 17:59:50;;;;;;;7.17;6.47;;;;;;;;;;5075626;28;20468;-70
2021/10/28 18:02:17;;;;;;;7.87;7.07;;;;;;;;;;5075494;28;20858;-70
2021/10/28 18:04:44;;;;;;;8.07;7.27;;;;;;;;;;5075276;28;20456;-71
2021/10/28 18:07:11;;;;;;;9.37;8.47;;;;;;;;;;5075289;28;20444;-70
2021/10/28 18:09:44;;;;;;;11.80;8.43;;;;;;;;;;5075977;28;20877;-70
2021/10/28 18:12:11;;;;;;;8.37;7.47;;;;;;;;;;5058384;28;20831;-72
2021/10/28 18:14:39;;;;;;;10.30;7.20;;;;;;;;;;5054807;28;20476;-72
2021/10/28 18:17:08;;;;;;;8.70;7.90;;;;;;;;;;5054849;28;20927;-69
2021/10/28 18:19:35;;;;;;;12.00;9.70;;;;;;;;;;5054621;28;20453;-70
2021/10/28 18:22:02;;;;;;;11.53;9.73;;;;;;;;;;5054769;28;20445;-69
2021/10/28 18:24:30;;;;;;;11.17;9.20;;;;;;;;;;5054652;28;20531;-72
2021/10/28 18:26:58;;;;;;;13.60;9.80;;;;;;;;;;5054371;28;20800;-70
2021/10/28 18:29:25;;;;;;;12.20;10.40;;;;;;;;;;5054275;28;20985;-70
2021/10/28 18:31:53;;;;;;;16.00;9.97;;;;;;;;;;5054566;28;20437;-70
2021/10/28 18:34:20;;;;;;;15.67;11.33;;;;;;;;;;5054397;28;20536;-71
2021/10/28 18:36:47;;;;;;;15.97;11.73;;;;;;;;;;5054158;28;20437;-71
2021/10/28 18:39:14;;;;;;;13.47;12.00;;;;;;;;;;5053908;28;20441;-70
2021/10/28 18:41:42;;;;;;;16.50;11.97;;;;;;;;;;5054083;28;20441;-70
2021/10/28 18:44:10;;;;;;;15.97;11.20;;;;;;;;;;5054225;28;20854;-70
2021/10/28 18:46:38;;;;;;;14.73;11.80;;;;;;;;;;5053891;28;20622;-70
2021/10/28 18:49:07;;;;;;;16.67;12.50;;;;;;;;;;5054211;28;20453;-70
2021/10/28 18:51:35;;;;;;;15.03;12.83;;;;;;;;;;5053714;28;20478;-71
2021/10/28 18:54:03;;;;;;;15.73;12.60;;;;;;;;;;5053962;28;20436;-71
2021/10/28 18:56:30;;;;;;;15.90;13.03;;;;;;;;;;5053713;28;20473;-70
2021/10/28 18:58:58;;;;;;;14.87;13.10;;;;;;;;;;5054051;28;20449;-70
2021/10/28 19:01:28;;;;;;;19.50;14.33;;;;;;;;;;5053989;28;20441;-70
2021/10/28 19:03:55;;;;;;;46.10;35.37;;;;;;;;;;5054044;28;20435;-70
2021/10/28 19:06:23;;;;;;;18.20;13.80;;;;;;;;;;5053518;28;20437;-68
2021/10/28 19:08:51;;;;;;;18.07;13.30;;;;;;;;;;5053339;28;20533;-70
2021/10/28 19:11:18;;;;;;;17.23;14.60;;;;;;;;;;5053461;28;20477;-70
2021/10/28 19:13:47;;;;;;;16.10;14.03;;;;;;;;;;5053450;28;20962;-70
2021/10/28 19:16:14;;;;;;;21.20;14.13;;;;;;;;;;5053815;28;20487;-70
2021/10/28 19:18:44;;;;;;;24.20;21.70;;;;;;;;;;5053689;28;20437;-70
2021/10/28 19:21:12;;;;;;;19.73;15.00;;;;;;;;;;5053488;28;20442;-67
2021/10/28 19:23:39;;;;;;;20.17;16.27;;;;;;;;;;5052912;28;20448;-71
2021/10/28 19:26:06;;;;;;;18.60;14.83;;;;;;;;;;5053577;28;20714;-70
2021/10/28 19:28:34;;;;;;;16.93;15.10;;;;;;;;;;5053551;28;20469;-70
2021/10/28 19:31:02;;;;;;;18.80;15.50;;;;;;;;;;5053109;28;20532;-70
2021/10/28 19:33:38;;;;;;;15.47;13.37;;;;;;;;;;5053381;28;20449;-70
2021/10/28 19:36:12;;;;;;;23.13;14.63;;;;;;;;;;5053375;28;20465;-70
2021/10/28 19:38:59;;;;;;;19.93;14.43;;;;;;;;;;5052777;28;20431;-69
2021/10/28 19:41:46;;;;;;;18.70;14.27;;;;;;;;;;5053120;28;20762;-71
2021/10/28 19:46:59;;;;;;;14.23;12.70;;;;;;;;;;5053115;28;20401;-70
2021/10/28 19:49:26;;;;;;;30.23;22.53;;;;;;;;;;5053219;28;20445;-70
2021/10/28 19:52:01;;;;;;;24.50;20.23;;;;;;;;;;5052563;28;20568;-69
2021/10/28 19:54:28;;;;;;;19.43;14.27;;;;;;;;;;5052889;28;20463;-70
2021/10/28 19:56:55;;;;;;;18.23;14.60;;;;;;;;;;5053063;28;20485;-71
2021/10/28 19:59:25;;;;;;;18.80;15.07;;;;;;;;;;5052971;28;20532;-71
2021/10/28 20:01:55;;;;;;;17.30;14.20;;;;;;;;;;5053357;28;20443;-69
2021/10/28 20:04:50;;;;;;;18.37;14.73;;;;;;;;;;5053256;28;20450;-69
2021/10/28 20:07:23;;;;;;;17.20;14.83;;;;;;;;;;5052823;28;20437;-70
2021/10/28 20:15:31;;;;;;;17.90;14.47;;;;;;;;;;5053009;28;20590;-70
2021/10/28 20:20:44;;;;;;;21.13;16.00;;;;;;;;;;5053170;28;20940;-69
2021/10/28 20:23:12;;;;;;;18.00;15.20;;;;;;;;;;5053302;28;20552;-70
2021/10/28 20:25:40;;;;;;;21.33;17.90;;;;;;;;;;5053126;28;20449;-69
2021/10/28 20:28:08;;;;;;;21.10;16.37;;;;;;;;;;5053108;28;20798;-69
2021/10/28 20:30:48;;;;;;;24.70;18.87;;;;;;;;;;5053052;28;20446;-68
2021/10/28 20:33:15;;;;;;;29.17;20.27;;;;;;;;;;5053141;28;20445;-68
2021/10/28 20:36:11;;;;;;;30.47;21.50;;;;;;;;;;5055753;28;20517;-68
2021/10/28 20:38:40;;;;;;;32.77;21.07;;;;;;;;;;5057281;28;20827;-68
2021/10/28 20:41:07;;;;;;;23.00;18.57;;;;;;;;;;5057152;28;20532;-69
2021/10/28 20:43:36;;;;;;;24.33;17.33;;;;;;;;;;5056765;28;20529;-69
2021/10/28 20:46:04;;;;;;;26.37;17.40;;;;;;;;;;5056691;28;20515;-69
2021/10/28 20:48:32;;;;;;;21.43;18.00;;;;;;;;;;5056758;28;20428;-68
2021/10/28 20:50:59;;;;;;;23.57;17.00;;;;;;;;;;5057271;28;21002;-69
2021/10/28 20:53:26;;;;;;;21.07;17.20;;;;;;;;;;5057188;28;20509;-69
2021/10/28 20:55:55;;;;;;;26.33;19.67;;;;;;;;;;5056222;28;20477;-69
2021/10/28 20:58:22;;;;;;;23.30;18.07;;;;;;;;;;5056592;28;20440;-69
2021/10/28 21:00:49;;;;;;;26.30;18.40;;;;;;;;;;5056199;28;20488;-68
2021/10/28 21:03:17;;;;;;;26.20;19.23;;;;;;;;;;5056165;28;20516;-69
2021/10/28 21:05:45;;;;;;;24.70;18.87;;;;;;;;;;5056422;28;20869;-69
2021/10/28 21:08:12;;;;;;;23.07;19.53;;;;;;;;;;5056371;28;20441;-69
2021/10/28 21:10:39;;;;;;;24.73;18.60;;;;;;;;;;5068857;28;20478;-69
2021/10/28 21:13:08;;;;;;;27.10;20.00;;;;;;;;;;5076340;28;20446;-69
2021/10/28 21:15:35;;;;;;;24.70;17.90;;;;;;;;;;5076230;28;20476;-68
2021/10/28 21:18:02;;;;;;;25.07;19.50;;;;;;;;;;5075952;28;21046;-68
2021/10/28 21:20:29;;;;;;;30.67;20.60;;;;;;;;;;5076207;28;20452;-69
2021/10/28 21:22:57;;;;;;;28.50;21.57;;;;;;;;;;5075825;28;20791;-68
2021/10/28 21:25:24;;;;;;;32.30;21.33;;;;;;;;;;5075826;28;20458;-69
2021/10/28 21:27:52;;;;;;;28.37;22.00;;;;;;;;;;5076235;28;20546;-68
2021/10/28 21:30:20;;;;;;;25.47;20.50;;;;;;;;;;5076058;28;20522;-69
2021/10/28 21:32:48;;;;;;;25.07;20.70;;;;;;;;;;5075951;28;20435;-69
2021/10/28 21:35:15;;;;;;;28.90;21.03;;;;;;;;;;5075507;28;21041;-70
2021/10/28 21:37:44;;;;;;;28.00;20.47;;;;;;;;;;5076248;28;20462;-70
2021/10/28 21:40:13;;;;;;;30.80;20.70;;;;;;;;;;5075521;28;20446;-70
2021/10/28 21:42:40;;;;;;;26.70;21.30;;;;;;;;;;5075447;28;20194;-70
2021/10/28 21:45:11;;;;;;;36.00;23.65;;;;;;;;;;5075348;28;20479;-70
2021/10/28 21:47:40;;;;;;;27.67;20.57;;;;;;;;;;5075834;28;20203;-70
2021/10/28 21:50:09;;;;;;;32.33;22.20;;;;;;;;;;5075832;28;20482;-70
2021/10/28 21:52:39;;;;;;;37.17;21.17;;;;;;;;;;5074912;28;20981;-70
2021/10/28 21:55:11;;;;;;;33.10;22.80;;;;;;;;;;5075184;28;20946;-69
2021/10/28 21:57:46;;;;;;;31.73;24.45;;;;;;;;;;5075728;28;20435;-69
2021/10/28 22:00:25;;;;;;;33.90;22.95;;;;;;;;;;5075909;28;20228;-70
2021/10/28 22:06:05;;;;;;;28.33;21.27;;;;;;;;;;5013251;28;20298;-69
2021/10/28 22:25:02;;;;;;;25.40;20.17;;;;;;;;;;5074726;28;20482;-70
2021/10/28 22:27:31;;;;;;;35.83;24.17;;;;;;;;;;5074523;28;20204;-70
2021/10/28 22:29:59;;;;;;;32.45;23.35;;;;;;;;;;5074837;28;20790;-70
2021/10/28 22:32:26;;;;;;;32.00;22.90;;;;;;;;;;5074701;28;20200;-70
2021/10/28 22:34:54;;;;;;;32.25;21.85;;;;;;;;;;5074725;28;20433;-69
2021/10/28 22:37:22;;;;;;;36.75;21.55;;;;;;;;;;5074594;28;20229;-69
2021/10/28 22:39:57;;;;;;;31.57;22.23;;;;;;;;;;5074706;28;20662;-70
2021/10/28 22:42:25;;;;;;;32.50;21.53;;;;;;;;;;5074595;28;20916;-70
2021/10/28 22:44:53;;;;;;;31.30;21.97;;;;;;;;;;5074502;28;20932;-70
2021/10/28 22:47:20;;;;;;;28.30;20.50;;;;;;;;;;5074169;28;20442;-69
2021/10/28 22:49:48;;;;;;;31.37;21.60;;;;;;;;;;5074455;28;20198;-70
2021/10/28 22:52:21;;;;;;;33.57;22.20;;;;;;;;;;5074045;28;21007;-70
2021/10/28 22:54:49;;;;;;;34.55;21.20;;;;;;;;;;5074368;28;20443;-70
2021/10/28 22:57:23;;;;;;;33.17;20.83;;;;;;;;;;5073532;28;20245;-70
2021/10/28 22:59:51;;;;;;;33.97;22.30;;;;;;;;;;5074360;28;20471;-70
2021/10/28 23:02:30;;;;;;;29.40;21.40;;;;;;;;;;5074186;28;20454;-70